createdAt,value
2023-01-19T00:01:06.562Z,13.44
2023-01-19T00:03:37.170Z,13.41
2023-01-19T00:06:07.546Z,13.40
2023-01-19T00:08:36.896Z,13.36
2023-01-19T00:11:06.460Z,13.33
2023-01-19T00:13:35.442Z,13.32
2023-01-19T00:16:06.215Z,13.34
2023-01-19T00:18:35.761Z,13.35
2023-01-19T00:21:04.786Z,13.41
2023-01-19T00:23:33.863Z,13.39
2023-01-19T00:26:03.016Z,13.39
2023-01-19T00:28:32.121Z,13.38
2023-01-19T00:31:01.079Z,13.40
2023-01-19T00:33:31.708Z,13.40
2023-01-19T00:36:00.857Z,13.41
2023-01-19T00:38:30.013Z,13.41
2023-01-19T00:40:59.016Z,13.43
2023-01-19T00:43:28.399Z,13.36
2023-01-19T00:45:57.687Z,13.31
2023-01-19T00:48:26.893Z,13.33
2023-01-19T00:50:57.343Z,13.40
2023-01-19T00:53:26.501Z,13.42
2023-01-19T00:55:55.862Z,13.37
2023-01-19T00:58:24.958Z,13.44
2023-01-19T01:00:57.826Z,13.49
2023-01-19T01:03:28.331Z,13.50
2023-01-19T01:05:59.223Z,13.46
2023-01-19T01:08:28.345Z,13.46
2023-01-19T01:10:57.865Z,13.50
2023-01-19T01:13:28.097Z,13.36
2023-01-19T01:15:58.367Z,13.42
2023-01-19T01:18:28.018Z,13.45
2023-01-19T01:21:04.596Z,13.49
2023-01-19T01:23:33.919Z,13.50
2023-01-19T01:26:03.055Z,13.49
2023-01-19T01:28:32.675Z,13.53
2023-01-19T01:31:01.833Z,13.58
2023-01-19T01:33:40.975Z,13.56
2023-01-19T01:36:13.060Z,13.57
2023-01-19T01:38:42.888Z,13.55
2023-01-19T01:41:12.473Z,13.58
2023-01-19T01:43:50.401Z,13.62
2023-01-19T01:46:20.157Z,13.59
2023-01-19T01:48:54.167Z,13.62
2023-01-19T01:51:30.430Z,13.66
2023-01-19T01:54:09.979Z,13.62
2023-01-19T01:56:41.750Z,13.61
2023-01-19T01:59:18.263Z,13.61
2023-01-19T02:02:04.760Z,13.63
2023-01-19T02:04:34.487Z,13.71
2023-01-19T02:07:22.539Z,13.67
2023-01-19T02:10:10.282Z,13.67
2023-01-19T02:12:56.821Z,13.69
2023-01-19T02:15:26.216Z,13.61
2023-01-19T02:17:55.350Z,13.68
2023-01-19T02:20:28.918Z,13.64
2023-01-19T02:23:05.634Z,13.67
2023-01-19T02:25:36.371Z,13.70
2023-01-19T02:28:06.725Z,13.68
2023-01-19T02:30:37.360Z,13.64
2023-01-19T02:33:07.434Z,13.66
2023-01-19T02:35:39.568Z,13.64
2023-01-19T02:38:10.549Z,13.63
2023-01-19T02:40:44.264Z,13.61
2023-01-19T02:43:13.508Z,13.56
2023-01-19T02:45:44.665Z,13.62
2023-01-19T02:48:13.879Z,13.62
2023-01-19T02:50:46.424Z,13.65
2023-01-19T02:53:35.622Z,13.69
2023-01-19T02:56:25.238Z,13.59
2023-01-19T02:59:05.272Z,13.60
2023-01-19T03:01:44.909Z,13.55
2023-01-19T03:04:24.330Z,13.63
2023-01-19T03:07:01.667Z,13.67
2023-01-19T03:09:38.674Z,13.68
2023-01-19T03:12:17.032Z,13.59
2023-01-19T03:14:49.420Z,13.64
2023-01-19T03:17:20.428Z,13.65
2023-01-19T03:19:52.084Z,13.69
2023-01-19T03:22:24.501Z,13.75
2023-01-19T03:24:56.937Z,13.77
2023-01-19T03:27:30.298Z,13.76
2023-01-19T03:30:02.355Z,13.64
2023-01-19T03:32:36.491Z,13.56
2023-01-19T03:35:11.464Z,13.69
2023-01-19T03:37:44.188Z,13.62
2023-01-19T03:40:14.021Z,13.63
2023-01-19T03:42:46.065Z,13.60
2023-01-19T03:45:16.174Z,13.54
2023-01-19T03:47:45.321Z,13.52
2023-01-19T03:50:22.351Z,13.57
2023-01-19T03:53:03.687Z,13.57
2023-01-19T03:55:32.734Z,13.66
2023-01-19T03:58:03.179Z,13.66
2023-01-19T04:00:32.610Z,13.65
2023-01-19T04:03:02.158Z,13.62
2023-01-19T04:05:31.757Z,13.61
2023-01-19T04:08:01.105Z,13.64
2023-01-19T04:10:30.648Z,13.61
2023-01-19T04:13:00.935Z,13.61
2023-01-19T04:15:32.462Z,13.47
2023-01-19T04:18:02.613Z,13.55
2023-01-19T04:20:31.852Z,13.53
2023-01-19T04:23:02.754Z,13.54
2023-01-19T04:25:32.086Z,13.55
2023-01-19T04:28:01.307Z,13.53
2023-01-19T04:30:31.885Z,13.57
2023-01-19T04:33:01.476Z,13.54
2023-01-19T04:35:30.964Z,13.59
2023-01-19T04:37:59.954Z,13.64
2023-01-19T04:40:29.013Z,13.61
2023-01-19T04:42:58.769Z,13.55
2023-01-19T04:45:27.928Z,13.59
2023-01-19T04:47:58.407Z,13.57
2023-01-19T04:50:27.815Z,13.55
2023-01-19T04:52:56.864Z,13.58
2023-01-19T04:55:26.123Z,13.55
2023-01-19T04:57:55.548Z,13.56
2023-01-19T05:00:24.961Z,13.60
2023-01-19T05:02:54.273Z,13.63
2023-01-19T05:05:25.195Z,13.63
2023-01-19T05:07:54.994Z,13.61
2023-01-19T05:10:24.626Z,13.59
2023-01-19T05:12:53.801Z,13.59
2023-01-19T05:15:22.875Z,13.58
2023-01-19T05:17:53.046Z,13.60
2023-01-19T05:20:22.380Z,13.55
2023-01-19T05:22:53.896Z,13.57
2023-01-19T05:25:23.110Z,13.51
2023-01-19T05:27:55.858Z,13.51
2023-01-19T05:30:25.656Z,13.52
2023-01-19T05:32:54.803Z,13.49
2023-01-19T05:35:35.259Z,13.45
2023-01-19T05:38:06.573Z,13.49
2023-01-19T05:40:35.717Z,13.52
2023-01-19T05:43:05.562Z,13.56
2023-01-19T05:45:34.899Z,13.58
2023-01-19T05:48:03.902Z,13.59
2023-01-19T05:50:33.376Z,13.62
2023-01-19T05:53:03.501Z,13.61
2023-01-19T05:55:34.168Z,13.63
2023-01-19T05:58:03.442Z,13.64
2023-01-19T06:00:32.662Z,13.64
2023-01-19T06:03:02.803Z,13.67
2023-01-19T06:05:32.405Z,13.65
2023-01-19T06:08:01.782Z,13.60
2023-01-19T06:10:30.930Z,13.62
2023-01-19T06:13:01.892Z,13.65
2023-01-19T06:15:31.406Z,13.67
2023-01-19T06:18:00.638Z,13.72
2023-01-19T06:20:29.888Z,13.74
2023-01-19T06:22:59.273Z,13.73
2023-01-19T06:25:28.981Z,13.81
2023-01-19T06:27:58.128Z,13.88
2023-01-19T06:30:29.281Z,13.83
2023-01-19T06:32:58.643Z,13.88
2023-01-19T06:35:27.758Z,13.82
2023-01-19T06:37:56.882Z,13.89
2023-01-19T06:40:26.034Z,13.93
2023-01-19T06:42:55.156Z,14.00
2023-01-19T06:45:24.403Z,14.04
2023-01-19T06:47:58.015Z,14.07
2023-01-19T06:50:27.169Z,14.06
2023-01-19T06:52:56.390Z,14.10
2023-01-19T06:55:25.486Z,14.11
2023-01-19T06:58:00.829Z,14.17
2023-01-19T07:00:30.616Z,14.25
2023-01-19T07:03:01.420Z,14.27
2023-01-19T07:05:30.740Z,14.35
2023-01-19T07:07:59.990Z,14.41
2023-01-19T07:11:25.200Z,14.43
2023-01-19T07:13:18.381Z,14.48
2023-01-19T07:15:47.649Z,14.49
2023-01-19T07:18:18.185Z,14.55
2023-01-19T07:20:49.443Z,14.59
2023-01-19T07:23:18.702Z,14.64
2023-01-19T07:25:48.261Z,14.66
2023-01-19T07:28:17.932Z,14.68
2023-01-19T07:30:47.539Z,14.77
2023-01-19T07:33:18.446Z,14.88
2023-01-19T07:35:49.069Z,14.94
2023-01-19T07:38:19.741Z,15.03
2023-01-19T07:40:49.143Z,15.09
2023-01-19T07:43:18.503Z,15.18
2023-01-19T07:45:47.753Z,15.29
2023-01-19T07:48:18.434Z,15.36
2023-01-19T07:50:47.639Z,15.34
2023-01-19T07:53:17.066Z,15.43
2023-01-19T07:55:46.234Z,15.45
2023-01-19T07:58:15.353Z,15.54
2023-01-19T08:00:44.374Z,15.58
2023-01-19T08:03:13.728Z,15.74
2023-01-19T08:05:44.267Z,15.65
2023-01-19T08:08:13.812Z,15.72
2023-01-19T08:10:42.880Z,15.71
2023-01-19T08:13:11.866Z,15.76
2023-01-19T08:15:41.184Z,15.93
2023-01-19T08:18:11.888Z,16.05
2023-01-19T08:20:41.344Z,16.08
2023-01-19T08:23:12.017Z,16.18
2023-01-19T08:25:45.412Z,16.12
2023-01-19T08:28:16.514Z,16.15
2023-01-19T08:30:45.981Z,16.23
2023-01-19T08:33:15.378Z,16.34
2023-01-19T08:35:49.231Z,16.43
2023-01-19T08:38:20.079Z,16.41
2023-01-19T08:40:50.655Z,16.50
2023-01-19T08:43:19.923Z,16.61
2023-01-19T08:45:53.469Z,16.66
2023-01-19T08:48:24.259Z,16.65
2023-01-19T08:50:54.242Z,16.73
2023-01-19T08:53:25.297Z,16.90
2023-01-19T08:56:00.158Z,16.99
2023-01-19T08:58:29.301Z,17.08
2023-01-19T09:01:03.118Z,17.08
2023-01-19T09:03:33.170Z,17.15
2023-01-19T09:06:03.034Z,16.93
2023-01-19T09:08:33.722Z,17.04
2023-01-19T09:11:02.805Z,17.11
2023-01-19T09:13:31.912Z,16.96
2023-01-19T09:16:04.248Z,16.90
2023-01-19T09:18:33.846Z,16.96
2023-01-19T09:21:04.137Z,17.01
2023-01-19T09:23:34.859Z,16.99
2023-01-19T09:26:05.684Z,17.06
2023-01-19T09:28:35.194Z,17.07
2023-01-19T09:31:08.002Z,17.30
2023-01-19T09:33:37.432Z,17.21
2023-01-19T09:36:07.119Z,17.33
2023-01-19T09:38:38.737Z,17.41
2023-01-19T09:41:18.986Z,17.29
2023-01-19T09:43:52.261Z,17.29
2023-01-19T09:46:24.743Z,17.38
2023-01-19T09:48:56.812Z,17.53
2023-01-19T09:51:27.968Z,17.50
2023-01-19T09:54:06.669Z,17.51
2023-01-19T09:56:35.941Z,17.73
2023-01-19T09:59:18.755Z,17.93
2023-01-19T10:02:03.739Z,18.09
2023-01-19T10:04:36.144Z,17.75
2023-01-19T10:07:12.474Z,17.83
2023-01-19T10:09:56.389Z,17.69
2023-01-19T10:12:45.161Z,17.53
2023-01-19T10:15:24.876Z,17.70
2023-01-19T10:18:05.858Z,17.61
2023-01-19T10:20:40.084Z,17.47
2023-01-19T10:23:23.488Z,17.42
2023-01-19T10:25:58.221Z,17.26
2023-01-19T10:28:28.372Z,17.14
2023-01-19T10:30:57.689Z,17.26
2023-01-19T10:33:27.475Z,17.05
2023-01-19T10:35:56.769Z,17.20
2023-01-19T10:38:28.939Z,17.43
2023-01-19T10:41:05.318Z,17.40
2023-01-19T10:43:40.041Z,17.52
2023-01-19T10:46:18.761Z,17.26
2023-01-19T10:48:50.480Z,17.38
2023-01-19T10:51:21.088Z,17.39
2023-01-19T10:53:59.553Z,17.26
2023-01-19T10:56:34.459Z,17.28
2023-01-19T10:59:05.883Z,17.13
2023-01-19T11:01:37.673Z,16.76
2023-01-19T11:04:29.219Z,16.45
2023-01-19T11:07:15.872Z,16.47
2023-01-19T11:09:45.202Z,16.66
2023-01-19T11:12:24.195Z,16.49
2023-01-19T11:14:54.083Z,16.47
2023-01-19T11:17:25.453Z,16.63
2023-01-19T11:19:57.803Z,16.78
2023-01-19T11:22:30.945Z,16.68
2023-01-19T11:25:01.766Z,16.46
2023-01-19T11:27:37.718Z,16.33
2023-01-19T11:30:19.354Z,16.30
2023-01-19T11:32:49.527Z,16.09
2023-01-19T11:35:35.945Z,15.90
2023-01-19T11:38:15.186Z,15.86
2023-01-19T11:40:53.280Z,15.93
2023-01-19T11:43:27.665Z,15.91
2023-01-19T11:46:00.010Z,15.94
2023-01-19T11:48:34.994Z,16.17
2023-01-19T11:51:08.908Z,16.06
2023-01-19T11:53:39.076Z,16.01
2023-01-19T11:56:12.213Z,15.95
2023-01-19T11:58:43.393Z,15.90
2023-01-19T12:01:21.289Z,15.86
2023-01-19T12:03:58.405Z,15.89
2023-01-19T12:06:32.361Z,15.77
2023-01-19T12:09:04.854Z,15.73
2023-01-19T12:11:37.217Z,15.76
2023-01-19T12:14:17.390Z,15.67
2023-01-19T12:16:47.915Z,15.50
2023-01-19T12:19:20.299Z,15.37
2023-01-19T12:21:50.490Z,15.45
2023-01-19T12:24:29.161Z,15.43
2023-01-19T12:26:59.992Z,15.48
2023-01-19T12:29:35.420Z,15.59
2023-01-19T12:32:33.720Z,15.60
2023-01-19T12:35:02.921Z,15.56
2023-01-19T12:37:41.286Z,15.56
2023-01-19T12:40:25.484Z,15.43
2023-01-19T12:43:00.863Z,15.47
2023-01-19T12:45:36.384Z,15.29
2023-01-19T12:48:09.198Z,15.35
2023-01-19T12:50:39.870Z,15.32
2023-01-19T12:53:20.949Z,15.42
2023-01-19T12:56:01.380Z,15.40
2023-01-19T12:58:31.273Z,15.38
2023-01-19T13:01:20.307Z,15.16
2023-01-19T13:04:04.735Z,15.15
2023-01-19T13:07:08.728Z,15.18
2023-01-19T13:09:39.664Z,15.29
2023-01-19T13:12:27.953Z,15.49
2023-01-19T13:15:28.847Z,15.51
2023-01-19T13:17:59.927Z,15.62
2023-01-19T13:20:46.280Z,15.65
2023-01-19T13:23:26.905Z,15.63
2023-01-19T13:26:04.540Z,15.67
2023-01-19T13:28:39.360Z,15.75
2023-01-19T13:31:10.297Z,15.78
2023-01-19T13:33:50.243Z,15.78
2023-01-19T13:36:28.771Z,15.64
2023-01-19T13:39:00.871Z,15.63
2023-01-19T13:41:33.066Z,15.67
2023-01-19T13:44:04.843Z,15.45
2023-01-19T13:46:34.863Z,15.54
2023-01-19T13:49:16.977Z,15.52
2023-01-19T13:51:47.505Z,15.48
2023-01-19T13:54:18.590Z,15.45
2023-01-19T13:56:51.489Z,15.44
2023-01-19T13:59:20.632Z,15.41
2023-01-19T14:01:51.608Z,15.41
2023-01-19T14:04:31.289Z,15.37
2023-01-19T14:07:02.847Z,15.37
2023-01-19T14:09:34.416Z,15.25
2023-01-19T14:12:12.066Z,15.25
2023-01-19T14:14:41.679Z,15.27
2023-01-19T14:17:28.459Z,15.30
2023-01-19T14:20:01.297Z,15.29
2023-01-19T14:22:51.305Z,15.30
2023-01-19T14:25:31.399Z,15.24
2023-01-19T14:28:35.669Z,15.16
2023-01-19T14:31:19.527Z,15.17
2023-01-19T14:33:50.390Z,15.17
2023-01-19T14:36:30.556Z,15.17
2023-01-19T14:39:01.842Z,15.10
2023-01-19T14:41:39.172Z,15.10
2023-01-19T14:44:12.940Z,15.02
2023-01-19T14:46:48.248Z,14.98
2023-01-19T14:49:22.815Z,14.94
2023-01-19T14:51:53.813Z,14.92
2023-01-19T14:54:33.328Z,14.86
2023-01-19T14:57:02.425Z,14.81
2023-01-19T14:59:31.776Z,14.68
2023-01-19T15:02:01.200Z,14.67
2023-01-19T15:04:30.631Z,14.62
2023-01-19T15:07:01.306Z,14.53
2023-01-19T15:09:30.560Z,14.37
2023-01-19T15:12:00.589Z,14.18
2023-01-19T15:14:29.706Z,13.93
2023-01-19T15:16:59.301Z,13.59
2023-01-19T15:19:28.475Z,13.28
2023-01-19T15:21:57.686Z,13.03
2023-01-19T15:24:28.414Z,12.89
2023-01-19T15:27:01.862Z,12.90
2023-01-19T15:29:32.287Z,12.90
2023-01-19T15:32:02.555Z,12.95
2023-01-19T15:34:32.785Z,12.95
2023-01-19T15:37:01.908Z,12.72
2023-01-19T15:39:32.447Z,12.46
2023-01-19T15:42:02.015Z,12.21
2023-01-19T15:44:31.851Z,12.04
2023-01-19T15:47:01.243Z,11.80
2023-01-19T15:49:31.151Z,11.58
2023-01-19T15:52:00.319Z,11.41
2023-01-19T15:54:29.776Z,11.33
2023-01-19T15:57:00.497Z,11.27
2023-01-19T15:59:29.538Z,11.29
2023-01-19T16:01:58.915Z,11.20
2023-01-19T16:04:28.135Z,11.21
2023-01-19T16:06:57.256Z,11.16
2023-01-19T16:09:26.382Z,11.11
2023-01-19T16:11:57.961Z,11.12
2023-01-19T16:14:28.703Z,11.17
2023-01-19T16:17:00.245Z,11.04
2023-01-19T16:19:29.487Z,11.18
2023-01-19T16:21:58.591Z,11.15
2023-01-19T16:24:27.696Z,11.24
2023-01-19T16:26:56.959Z,11.31
2023-01-19T16:29:27.815Z,11.38
2023-01-19T16:31:57.105Z,11.40
2023-01-19T16:34:26.341Z,11.34
2023-01-19T16:36:55.511Z,11.26
2023-01-19T16:39:24.756Z,11.22
2023-01-19T16:41:53.848Z,11.24
2023-01-19T16:44:23.071Z,11.29
2023-01-19T16:46:53.719Z,11.27
2023-01-19T16:49:26.259Z,11.29
2023-01-19T16:51:58.806Z,11.32
2023-01-19T16:54:28.927Z,11.34
2023-01-19T16:56:59.336Z,11.35
2023-01-19T16:59:29.625Z,11.16
2023-01-19T17:02:00.355Z,11.17
2023-01-19T17:04:30.053Z,11.03
2023-01-19T17:06:59.458Z,10.89
2023-01-19T17:09:29.170Z,10.73
2023-01-19T17:11:59.624Z,10.77
2023-01-19T17:14:28.784Z,10.73
2023-01-19T17:17:00.927Z,10.74
2023-01-19T17:19:31.773Z,10.72
2023-01-19T17:22:01.081Z,10.70
2023-01-19T17:24:30.437Z,10.70
2023-01-19T17:27:00.009Z,10.69
2023-01-19T17:29:29.152Z,10.59
2023-01-19T17:31:58.232Z,10.67
2023-01-19T17:34:27.568Z,10.58
2023-01-19T17:37:03.323Z,10.65
2023-01-19T17:39:32.861Z,10.75
2023-01-19T17:42:02.074Z,10.80
2023-01-19T17:44:31.340Z,10.84
2023-01-19T17:47:00.767Z,10.82
2023-01-19T17:49:30.293Z,10.87
2023-01-19T17:52:01.054Z,10.92
2023-01-19T17:54:30.474Z,10.93
2023-01-19T17:56:59.778Z,11.00
2023-01-19T17:59:29.072Z,10.99
2023-01-19T18:01:58.263Z,10.93
2023-01-19T18:04:27.483Z,10.99
2023-01-19T18:06:57.690Z,10.98
2023-01-19T18:09:28.569Z,10.86
2023-01-19T18:11:57.843Z,10.90
2023-01-19T18:14:27.113Z,10.86
2023-01-19T18:16:56.336Z,10.88
2023-01-19T18:19:25.715Z,10.90
2023-01-19T18:21:55.125Z,10.73
2023-01-19T18:24:24.431Z,10.80
2023-01-19T18:26:55.770Z,10.59
2023-01-19T18:29:25.094Z,10.51
2023-01-19T18:31:54.388Z,10.43
2023-01-19T18:34:23.591Z,10.31
2023-01-19T18:36:52.819Z,10.26
2023-01-19T18:39:22.038Z,10.14
2023-01-19T18:41:51.419Z,10.01
2023-01-19T18:44:22.245Z,10.06
2023-01-19T18:46:52.426Z,10.00
2023-01-19T18:49:21.605Z,10.06
2023-01-19T18:51:50.945Z,9.98
2023-01-19T18:54:21.075Z,10.04
2023-01-19T18:56:51.736Z,10.01
2023-01-19T18:59:22.397Z,10.10
2023-01-19T19:01:52.040Z,9.99
2023-01-19T19:04:21.328Z,9.95
2023-01-19T19:06:50.404Z,10.01
2023-01-19T19:09:19.661Z,9.79
2023-01-19T19:11:48.802Z,9.86
2023-01-19T19:14:18.119Z,9.79
2023-01-19T19:16:48.675Z,9.74
2023-01-19T19:19:18.742Z,9.62
2023-01-19T19:21:49.290Z,9.52
2023-01-19T19:24:18.626Z,9.43
2023-01-19T19:26:47.788Z,9.46
2023-01-19T19:29:16.846Z,9.46
2023-01-19T19:31:46.435Z,9.38
2023-01-19T19:34:17.179Z,9.40
2023-01-19T19:36:46.311Z,9.36
2023-01-19T19:39:15.316Z,9.41
2023-01-19T19:41:44.637Z,9.29
2023-01-19T19:44:14.098Z,9.48
2023-01-19T19:46:43.360Z,9.42
2023-01-19T19:49:12.558Z,9.48
2023-01-19T19:51:43.855Z,9.55
2023-01-19T19:54:13.098Z,9.45
2023-01-19T19:56:42.429Z,9.48
2023-01-19T19:59:11.887Z,9.43
2023-01-19T20:01:41.332Z,9.34
2023-01-19T20:04:14.580Z,9.27
2023-01-19T20:06:46.532Z,9.43
2023-01-19T20:09:17.126Z,9.36
2023-01-19T20:11:49.341Z,9.44
2023-01-19T20:14:18.780Z,9.40
2023-01-19T20:16:47.867Z,9.34
2023-01-19T20:19:18.163Z,9.45
2023-01-19T20:21:48.786Z,9.54
2023-01-19T20:24:20.512Z,9.57
2023-01-19T20:26:52.520Z,9.69
2023-01-19T20:29:22.449Z,9.70
2023-01-19T20:31:54.144Z,9.70
2023-01-19T20:34:25.439Z,9.64
2023-01-19T20:36:56.588Z,9.62
2023-01-19T20:39:26.385Z,9.66
2023-01-19T20:41:55.533Z,9.59
2023-01-19T20:44:26.919Z,9.58
2023-01-19T20:46:56.733Z,9.59
2023-01-19T20:49:25.757Z,9.64
2023-01-19T20:51:56.481Z,9.71
2023-01-19T20:54:28.146Z,9.82
2023-01-19T20:56:58.567Z,9.82
2023-01-19T20:59:28.187Z,9.94
2023-01-19T21:01:57.556Z,9.70
2023-01-19T21:04:26.750Z,9.36
2023-01-19T21:06:57.309Z,9.35
2023-01-19T21:09:26.535Z,9.20
2023-01-19T21:11:57.424Z,9.05
2023-01-19T21:14:26.939Z,9.02
2023-01-19T21:16:58.650Z,8.96
2023-01-19T21:19:28.322Z,8.91
2023-01-19T21:21:58.820Z,8.75
2023-01-19T21:24:29.501Z,8.48
2023-01-19T21:26:58.651Z,8.49
2023-01-19T21:29:29.388Z,8.34
2023-01-19T21:31:58.809Z,8.12
2023-01-19T21:34:28.349Z,8.03
2023-01-19T21:36:58.909Z,7.90
2023-01-19T21:39:28.372Z,7.94
2023-01-19T21:41:57.990Z,7.87
2023-01-19T21:44:27.778Z,7.76
2023-01-19T21:46:56.976Z,7.70
2023-01-19T21:49:26.194Z,7.50
2023-01-19T21:51:55.649Z,7.40
2023-01-19T21:54:26.302Z,7.36
2023-01-19T21:56:55.576Z,7.34
2023-01-19T21:59:24.831Z,7.33
2023-01-19T22:01:54.046Z,7.39
2023-01-19T22:04:23.538Z,7.39
2023-01-19T22:06:52.822Z,7.39
2023-01-19T22:09:22.085Z,7.44
2023-01-19T22:11:52.716Z,7.41
2023-01-19T22:14:21.974Z,7.36
2023-01-19T22:16:51.330Z,7.34
2023-01-19T22:19:20.800Z,7.35
2023-01-19T22:21:50.073Z,7.36
2023-01-19T22:24:19.238Z,7.42
2023-01-19T22:26:48.454Z,7.55
2023-01-19T22:29:18.989Z,7.54
2023-01-19T22:31:49.650Z,7.45
2023-01-19T22:34:19.851Z,7.42
2023-01-19T22:36:48.909Z,7.58
2023-01-19T22:39:17.950Z,7.69
2023-01-19T22:41:49.007Z,7.82
2023-01-19T22:44:21.278Z,7.81
2023-01-19T22:46:51.570Z,7.67
2023-01-19T22:49:20.590Z,7.83
2023-01-19T22:51:54.247Z,7.77
2023-01-19T22:54:24.045Z,7.86
2023-01-19T22:56:53.239Z,7.97
2023-01-19T22:59:23.841Z,8.09
2023-01-19T23:01:53.237Z,8.15
2023-01-19T23:04:22.550Z,8.22
2023-01-19T23:06:53.114Z,8.31
2023-01-19T23:09:22.381Z,8.35
2023-01-19T23:11:51.591Z,8.37
2023-01-19T23:14:23.570Z,8.31
2023-01-19T23:16:52.883Z,8.36
2023-01-19T23:19:21.923Z,8.42
2023-01-19T23:21:52.657Z,8.45
2023-01-19T23:24:21.939Z,8.41
2023-01-19T23:26:51.409Z,8.42
2023-01-19T23:29:21.040Z,8.36
2023-01-19T23:31:53.667Z,8.37
2023-01-19T23:34:22.948Z,8.37
2023-01-19T23:36:51.939Z,8.23
2023-01-19T23:39:22.224Z,8.13
2023-01-19T23:41:51.858Z,8.06
2023-01-19T23:44:20.991Z,7.91
2023-01-19T23:46:51.622Z,7.85
2023-01-19T23:49:20.715Z,7.88
2023-01-19T23:51:49.665Z,7.95
2023-01-19T23:54:19.010Z,7.97
2023-01-19T23:56:48.076Z,7.88
2023-01-19T23:59:17.852Z,7.81
